sensor_id;sensor_type;location;lat;lon;timestamp;P1;durP1;ratioP1;P2;durP2;ratioP2
21814;SDS011;11069;48.988;8.450;2023-03-24T00:01:20;4.10;;;3.40;;
21814;SDS011;11069;48.988;8.450;2023-03-24T00:03:46;5.00;;;3.80;;
21814;SDS011;11069;48.988;8.450;2023-03-24T00:06:13;4.47;;;3.38;;
21814;SDS011;11069;48.988;8.450;2023-03-24T00:08:39;4.68;;;3.20;;
21814;SDS011;11069;48.988;8.450;2023-03-24T00:11:06;5.95;;;3.22;;
21814;SDS011;11069;48.988;8.450;2023-03-24T00:13:35;4.00;;;3.30;;
21814;SDS011;11069;48.988;8.450;2023-03-24T00:18:32;4.35;;;3.05;;
21814;SDS011;11069;48.988;8.450;2023-03-24T00:20:58;4.05;;;3.28;;
21814;SDS011;11069;48.988;8.450;2023-03-24T00:23:25;3.65;;;3.30;;
21814;SDS011;11069;48.988;8.450;2023-03-24T00:26:01;3.60;;;2.85;;
21814;SDS011;11069;48.988;8.450;2023-03-24T00:28:30;4.25;;;3.55;;
21814;SDS011;11069;48.988;8.450;2023-03-24T00:30:57;3.78;;;3.38;;
21814;SDS011;11069;48.988;8.450;2023-03-24T00:33:26;3.97;;;3.22;;
21814;SDS011;11069;48.988;8.450;2023-03-24T00:35:52;6.05;;;3.28;;
21814;SDS011;11069;48.988;8.450;2023-03-24T00:38:18;3.83;;;3.40;;
21814;SDS011;11069;48.988;8.450;2023-03-24T00:40:44;3.40;;;3.05;;
21814;SDS011;11069;48.988;8.450;2023-03-24T00:43:12;5.03;;;3.33;;
21814;SDS011;11069;48.988;8.450;2023-03-24T00:45:38;3.78;;;3.08;;
21814;SDS011;11069;48.988;8.450;2023-03-24T00:48:10;4.38;;;3.00;;
21814;SDS011;11069;48.988;8.450;2023-03-24T00:50:36;4.00;;;3.25;;
21814;SDS011;11069;48.988;8.450;2023-03-24T00:53:02;3.22;;;2.92;;
21814;SDS011;11069;48.988;8.450;2023-03-24T00:55:29;3.70;;;2.95;;
21814;SDS011;11069;48.988;8.450;2023-03-24T00:57:56;5.50;;;3.15;;
21814;SDS011;11069;48.988;8.450;2023-03-24T01:00:22;4.22;;;2.92;;
21814;SDS011;11069;48.988;8.450;2023-03-24T01:02:50;5.15;;;3.20;;
21814;SDS011;11069;48.988;8.450;2023-03-24T01:05:17;5.38;;;2.80;;
21814;SDS011;11069;48.988;8.450;2023-03-24T01:07:59;5.57;;;3.05;;
21814;SDS011;11069;48.988;8.450;2023-03-24T01:10:29;4.88;;;3.28;;
21814;SDS011;11069;48.988;8.450;2023-03-24T01:12:58;3.72;;;3.15;;
21814;SDS011;11069;48.988;8.450;2023-03-24T01:15:28;4.13;;;3.00;;
21814;SDS011;11069;48.988;8.450;2023-03-24T01:17:57;4.20;;;3.13;;
21814;SDS011;11069;48.988;8.450;2023-03-24T01:20:26;3.55;;;2.83;;
21814;SDS011;11069;48.988;8.450;2023-03-24T01:22:56;3.10;;;2.80;;
21814;SDS011;11069;48.988;8.450;2023-03-24T01:25:23;3.50;;;2.83;;
21814;SDS011;11069;48.988;8.450;2023-03-24T01:27:50;3.55;;;2.78;;
21814;SDS011;11069;48.988;8.450;2023-03-24T01:30:18;3.33;;;2.72;;
21814;SDS011;11069;48.988;8.450;2023-03-24T01:32:46;3.35;;;2.85;;
21814;SDS011;11069;48.988;8.450;2023-03-24T01:35:12;4.28;;;2.90;;
21814;SDS011;11069;48.988;8.450;2023-03-24T01:37:38;2.85;;;2.55;;
21814;SDS011;11069;48.988;8.450;2023-03-24T01:40:05;3.97;;;2.90;;
21814;SDS011;11069;48.988;8.450;2023-03-24T01:42:35;5.40;;;3.10;;
21814;SDS011;11069;48.988;8.450;2023-03-24T01:48:23;3.85;;;3.03;;
21814;SDS011;11069;48.988;8.450;2023-03-24T01:50:53;3.60;;;2.97;;
21814;SDS011;11069;48.988;8.450;2023-03-24T01:53:24;3.15;;;2.85;;
21814;SDS011;11069;48.988;8.450;2023-03-24T01:55:50;4.25;;;2.55;;
21814;SDS011;11069;48.988;8.450;2023-03-24T01:58:16;3.70;;;3.10;;
21814;SDS011;11069;48.988;8.450;2023-03-24T02:00:42;3.05;;;2.83;;
21814;SDS011;11069;48.988;8.450;2023-03-24T02:03:10;4.60;;;3.13;;
21814;SDS011;11069;48.988;8.450;2023-03-24T02:05:38;3.42;;;2.97;;
21814;SDS011;11069;48.988;8.450;2023-03-24T02:10:40;3.47;;;2.90;;
21814;SDS011;11069;48.988;8.450;2023-03-24T02:13:08;3.88;;;2.85;;
21814;SDS011;11069;48.988;8.450;2023-03-24T02:15:37;3.40;;;3.10;;
21814;SDS011;11069;48.988;8.450;2023-03-24T02:27:36;3.13;;;2.75;;
21814;SDS011;11069;48.988;8.450;2023-03-24T02:41:33;3.45;;;2.80;;
21814;SDS011;11069;48.988;8.450;2023-03-24T02:44:38;3.88;;;3.13;;
21814;SDS011;11069;48.988;8.450;2023-03-24T02:47:19;3.70;;;3.10;;
21814;SDS011;11069;48.988;8.450;2023-03-24T02:53:16;4.10;;;3.58;;
21814;SDS011;11069;48.988;8.450;2023-03-24T02:56:00;3.67;;;3.38;;
21814;SDS011;11069;48.988;8.450;2023-03-24T02:58:41;5.35;;;4.10;;
21814;SDS011;11069;48.988;8.450;2023-03-24T03:01:12;4.70;;;3.90;;
21814;SDS011;11069;48.988;8.450;2023-03-24T03:03:45;5.93;;;3.63;;
21814;SDS011;11069;48.988;8.450;2023-03-24T03:06:22;6.00;;;3.83;;
21814;SDS011;11069;48.988;8.450;2023-03-24T03:08:52;4.35;;;3.95;;
21814;SDS011;11069;48.988;8.450;2023-03-24T03:11:21;5.40;;;4.10;;
21814;SDS011;11069;48.988;8.450;2023-03-24T03:13:49;6.35;;;4.47;;
21814;SDS011;11069;48.988;8.450;2023-03-24T03:16:27;5.18;;;4.18;;
21814;SDS011;11069;48.988;8.450;2023-03-24T03:19:19;5.43;;;4.10;;
21814;SDS011;11069;48.988;8.450;2023-03-24T03:21:48;5.28;;;4.10;;
21814;SDS011;11069;48.988;8.450;2023-03-24T03:24:17;8.93;;;4.00;;
21814;SDS011;11069;48.988;8.450;2023-03-24T03:26:50;6.22;;;4.60;;
21814;SDS011;11069;48.988;8.450;2023-03-24T03:31:57;5.20;;;4.53;;
21814;SDS011;11069;48.988;8.450;2023-03-24T03:37:25;5.75;;;4.80;;
21814;SDS011;11069;48.988;8.450;2023-03-24T03:39:56;5.72;;;4.97;;
21814;SDS011;11069;48.988;8.450;2023-03-24T03:42:24;8.75;;;5.07;;
21814;SDS011;11069;48.988;8.450;2023-03-24T03:44:50;5.32;;;4.55;;
21814;SDS011;11069;48.988;8.450;2023-03-24T03:47:16;6.05;;;4.60;;
21814;SDS011;11069;48.988;8.450;2023-03-24T03:49:45;5.95;;;4.75;;
21814;SDS011;11069;48.988;8.450;2023-03-24T03:52:12;6.43;;;5.35;;
21814;SDS011;11069;48.988;8.450;2023-03-24T03:54:38;5.25;;;4.75;;
21814;SDS011;11069;48.988;8.450;2023-03-24T03:57:05;8.10;;;4.45;;
21814;SDS011;11069;48.988;8.450;2023-03-24T03:59:33;7.78;;;4.65;;
21814;SDS011;11069;48.988;8.450;2023-03-24T04:02:50;7.45;;;5.07;;
21814;SDS011;11069;48.988;8.450;2023-03-24T04:13:20;5.53;;;4.75;;
21814;SDS011;11069;48.988;8.450;2023-03-24T04:16:14;5.75;;;4.88;;
21814;SDS011;11069;48.988;8.450;2023-03-24T04:18:52;6.30;;;5.10;;
21814;SDS011;11069;48.988;8.450;2023-03-24T04:24:36;4.97;;;4.47;;
21814;SDS011;11069;48.988;8.450;2023-03-24T04:32:34;7.32;;;5.10;;
21814;SDS011;11069;48.988;8.450;2023-03-24T04:35:19;6.50;;;5.80;;
21814;SDS011;11069;48.988;8.450;2023-03-24T04:37:55;8.38;;;5.40;;
21814;SDS011;11069;48.988;8.450;2023-03-24T04:40:29;7.07;;;5.68;;
21814;SDS011;11069;48.988;8.450;2023-03-24T04:42:57;7.30;;;6.55;;
21814;SDS011;11069;48.988;8.450;2023-03-24T04:45:27;9.10;;;6.95;;
21814;SDS011;11069;48.988;8.450;2023-03-24T04:47:57;7.75;;;7.05;;
21814;SDS011;11069;48.988;8.450;2023-03-24T04:50:35;11.57;;;7.63;;
21814;SDS011;11069;48.988;8.450;2023-03-24T04:53:03;9.05;;;7.63;;
21814;SDS011;11069;48.988;8.450;2023-03-24T04:57:56;9.65;;;8.30;;
21814;SDS011;11069;48.988;8.450;2023-03-24T05:00:22;10.65;;;8.63;;
21814;SDS011;11069;48.988;8.450;2023-03-24T05:02:48;11.18;;;9.43;;
21814;SDS011;11069;48.988;8.450;2023-03-24T05:05:16;11.60;;;9.30;;
21814;SDS011;11069;48.988;8.450;2023-03-24T05:07:42;13.20;;;10.65;;
21814;SDS011;11069;48.988;8.450;2023-03-24T05:10:08;14.55;;;9.50;;
21814;SDS011;11069;48.988;8.450;2023-03-24T05:12:35;11.05;;;9.43;;
21814;SDS011;11069;48.988;8.450;2023-03-24T05:15:00;12.18;;;10.07;;
21814;SDS011;11069;48.988;8.450;2023-03-24T05:17:26;10.75;;;9.35;;
21814;SDS011;11069;48.988;8.450;2023-03-24T05:19:52;14.30;;;10.55;;
21814;SDS011;11069;48.988;8.450;2023-03-24T05:22:17;12.70;;;9.75;;
21814;SDS011;11069;48.988;8.450;2023-03-24T05:24:43;11.52;;;10.27;;
21814;SDS011;11069;48.988;8.450;2023-03-24T05:27:08;13.18;;;10.65;;
21814;SDS011;11069;48.988;8.450;2023-03-24T05:29:34;12.15;;;10.70;;
21814;SDS011;11069;48.988;8.450;2023-03-24T05:32:00;11.88;;;10.63;;
21814;SDS011;11069;48.988;8.450;2023-03-24T05:34:25;12.98;;;11.07;;
21814;SDS011;11069;48.988;8.450;2023-03-24T05:36:51;13.70;;;10.77;;
21814;SDS011;11069;48.988;8.450;2023-03-24T05:39:16;15.43;;;11.45;;
21814;SDS011;11069;48.988;8.450;2023-03-24T05:41:42;13.35;;;11.10;;
21814;SDS011;11069;48.988;8.450;2023-03-24T05:44:08;14.20;;;11.40;;
21814;SDS011;11069;48.988;8.450;2023-03-24T05:46:34;15.40;;;11.48;;
21814;SDS011;11069;48.988;8.450;2023-03-24T05:49:00;12.38;;;10.73;;
21814;SDS011;11069;48.988;8.450;2023-03-24T05:51:25;15.60;;;10.75;;
21814;SDS011;11069;48.988;8.450;2023-03-24T05:53:51;16.75;;;11.85;;
21814;SDS011;11069;48.988;8.450;2023-03-24T05:56:16;14.57;;;12.20;;
21814;SDS011;11069;48.988;8.450;2023-03-24T05:58:42;13.18;;;11.80;;
21814;SDS011;11069;48.988;8.450;2023-03-24T06:01:09;15.20;;;11.85;;
21814;SDS011;11069;48.988;8.450;2023-03-24T06:03:35;18.05;;;12.48;;
21814;SDS011;11069;48.988;8.450;2023-03-24T06:06:03;15.60;;;11.60;;
21814;SDS011;11069;48.988;8.450;2023-03-24T06:08:30;14.90;;;12.18;;
21814;SDS011;11069;48.988;8.450;2023-03-24T06:10:58;16.17;;;11.88;;
21814;SDS011;11069;48.988;8.450;2023-03-24T06:13:26;13.50;;;12.10;;
21814;SDS011;11069;48.988;8.450;2023-03-24T06:15:55;14.20;;;11.80;;
21814;SDS011;11069;48.988;8.450;2023-03-24T06:18:23;11.90;;;10.70;;
21814;SDS011;11069;48.988;8.450;2023-03-24T06:20:51;16.42;;;11.88;;
21814;SDS011;11069;48.988;8.450;2023-03-24T06:23:20;13.23;;;11.10;;
21814;SDS011;11069;48.988;8.450;2023-03-24T06:25:52;14.07;;;11.63;;
21814;SDS011;11069;48.988;8.450;2023-03-24T06:28:19;11.60;;;10.32;;
21814;SDS011;11069;48.988;8.450;2023-03-24T06:30:46;14.35;;;10.00;;
21814;SDS011;11069;48.988;8.450;2023-03-24T06:33:13;12.50;;;10.13;;
21814;SDS011;11069;48.988;8.450;2023-03-24T06:35:39;10.85;;;9.40;;
21814;SDS011;11069;48.988;8.450;2023-03-24T06:38:05;12.80;;;9.00;;
21814;SDS011;11069;48.988;8.450;2023-03-24T06:40:31;11.18;;;7.43;;
21814;SDS011;11069;48.988;8.450;2023-03-24T06:42:57;8.48;;;7.60;;
21814;SDS011;11069;48.988;8.450;2023-03-24T06:45:24;12.20;;;7.45;;
21814;SDS011;11069;48.988;8.450;2023-03-24T06:47:52;8.60;;;6.85;;
21814;SDS011;11069;48.988;8.450;2023-03-24T06:50:20;8.25;;;6.78;;
21814;SDS011;11069;48.988;8.450;2023-03-24T06:52:46;6.93;;;6.30;;
21814;SDS011;11069;48.988;8.450;2023-03-24T06:55:11;8.32;;;6.53;;
21814;SDS011;11069;48.988;8.450;2023-03-24T06:57:37;8.63;;;7.32;;
21814;SDS011;11069;48.988;8.450;2023-03-24T07:00:03;7.88;;;7.07;;
21814;SDS011;11069;48.988;8.450;2023-03-24T07:02:30;10.40;;;7.30;;
21814;SDS011;11069;48.988;8.450;2023-03-24T07:04:59;7.78;;;6.85;;
21814;SDS011;11069;48.988;8.450;2023-03-24T07:07:29;9.00;;;6.80;;
21814;SDS011;11069;48.988;8.450;2023-03-24T07:09:55;9.55;;;7.25;;
21814;SDS011;11069;48.988;8.450;2023-03-24T07:12:21;8.10;;;6.80;;
21814;SDS011;11069;48.988;8.450;2023-03-24T07:14:46;7.85;;;7.10;;
21814;SDS011;11069;48.988;8.450;2023-03-24T07:17:12;9.95;;;7.72;;
21814;SDS011;11069;48.988;8.450;2023-03-24T07:19:37;7.97;;;6.88;;
21814;SDS011;11069;48.988;8.450;2023-03-24T07:22:03;9.10;;;7.53;;
21814;SDS011;11069;48.988;8.450;2023-03-24T07:24:32;8.60;;;7.70;;
21814;SDS011;11069;48.988;8.450;2023-03-24T07:26:58;8.43;;;7.57;;
21814;SDS011;11069;48.988;8.450;2023-03-24T07:29:24;11.07;;;8.15;;
21814;SDS011;11069;48.988;8.450;2023-03-24T07:31:49;10.00;;;8.15;;
21814;SDS011;11069;48.988;8.450;2023-03-24T07:34:17;13.02;;;8.90;;
21814;SDS011;11069;48.988;8.450;2023-03-24T07:36:42;9.30;;;7.70;;
21814;SDS011;11069;48.988;8.450;2023-03-24T07:39:08;10.80;;;8.05;;
21814;SDS011;11069;48.988;8.450;2023-03-24T07:41:34;10.13;;;8.20;;
21814;SDS011;11069;48.988;8.450;2023-03-24T07:44:00;15.43;;;8.40;;
21814;SDS011;11069;48.988;8.450;2023-03-24T07:46:26;9.48;;;8.25;;
21814;SDS011;11069;48.988;8.450;2023-03-24T07:48:51;8.77;;;7.55;;
21814;SDS011;11069;48.988;8.450;2023-03-24T07:51:17;7.68;;;6.88;;
21814;SDS011;11069;48.988;8.450;2023-03-24T07:53:43;7.57;;;6.78;;
21814;SDS011;11069;48.988;8.450;2023-03-24T07:56:11;7.55;;;6.75;;
21814;SDS011;11069;48.988;8.450;2023-03-24T07:58:38;7.18;;;6.05;;
21814;SDS011;11069;48.988;8.450;2023-03-24T08:01:05;5.55;;;4.60;;
21814;SDS011;11069;48.988;8.450;2023-03-24T08:03:33;5.10;;;4.30;;
21814;SDS011;11069;48.988;8.450;2023-03-24T08:06:00;5.50;;;4.85;;
21814;SDS011;11069;48.988;8.450;2023-03-24T08:08:26;5.18;;;4.10;;
21814;SDS011;11069;48.988;8.450;2023-03-24T08:10:51;4.50;;;3.70;;
21814;SDS011;11069;48.988;8.450;2023-03-24T08:13:17;3.42;;;3.13;;
21814;SDS011;11069;48.988;8.450;2023-03-24T08:15:43;3.92;;;3.47;;
21814;SDS011;11069;48.988;8.450;2023-03-24T08:18:08;4.72;;;3.60;;
21814;SDS011;11069;48.988;8.450;2023-03-24T08:20:34;4.03;;;3.38;;
21814;SDS011;11069;48.988;8.450;2023-03-24T08:23:00;4.93;;;3.58;;
21814;SDS011;11069;48.988;8.450;2023-03-24T08:25:28;5.75;;;3.35;;
21814;SDS011;11069;48.988;8.450;2023-03-24T08:27:54;4.43;;;2.72;;
21814;SDS011;11069;48.988;8.450;2023-03-24T08:30:21;3.20;;;2.90;;
21814;SDS011;11069;48.988;8.450;2023-03-24T08:32:49;4.38;;;2.80;;
21814;SDS011;11069;48.988;8.450;2023-03-24T08:35:22;3.47;;;2.88;;
21814;SDS011;11069;48.988;8.450;2023-03-24T08:37:49;2.80;;;2.60;;
21814;SDS011;11069;48.988;8.450;2023-03-24T08:40:17;3.22;;;2.92;;
21814;SDS011;11069;48.988;8.450;2023-03-24T08:42:47;2.97;;;2.33;;
21814;SDS011;11069;48.988;8.450;2023-03-24T08:45:15;2.50;;;2.30;;
21814;SDS011;11069;48.988;8.450;2023-03-24T08:47:44;2.25;;;2.05;;
21814;SDS011;11069;48.988;8.450;2023-03-24T08:50:11;4.25;;;2.70;;
21814;SDS011;11069;48.988;8.450;2023-03-24T08:52:37;2.60;;;2.40;;
21814;SDS011;11069;48.988;8.450;2023-03-24T08:55:02;2.30;;;2.10;;
21814;SDS011;11069;48.988;8.450;2023-03-24T08:57:33;2.90;;;2.50;;
21814;SDS011;11069;48.988;8.450;2023-03-24T08:59:58;3.55;;;2.40;;
21814;SDS011;11069;48.988;8.450;2023-03-24T09:02:24;2.55;;;2.15;;
21814;SDS011;11069;48.988;8.450;2023-03-24T09:04:50;3.55;;;2.60;;
21814;SDS011;11069;48.988;8.450;2023-03-24T09:07:18;2.22;;;2.08;;
21814;SDS011;11069;48.988;8.450;2023-03-24T09:09:44;2.72;;;2.38;;
21814;SDS011;11069;48.988;8.450;2023-03-24T09:12:10;2.85;;;2.65;;
21814;SDS011;11069;48.988;8.450;2023-03-24T09:14:36;2.80;;;2.60;;
21814;SDS011;11069;48.988;8.450;2023-03-24T09:17:01;4.30;;;2.60;;
21814;SDS011;11069;48.988;8.450;2023-03-24T09:19:27;3.33;;;2.75;;
21814;SDS011;11069;48.988;8.450;2023-03-24T09:21:52;2.90;;;2.67;;
21814;SDS011;11069;48.988;8.450;2023-03-24T09:24:18;4.60;;;2.90;;
21814;SDS011;11069;48.988;8.450;2023-03-24T09:26:43;3.40;;;2.70;;
21814;SDS011;11069;48.988;8.450;2023-03-24T09:29:09;3.53;;;2.90;;
21814;SDS011;11069;48.988;8.450;2023-03-24T09:31:35;3.65;;;3.03;;
21814;SDS011;11069;48.988;8.450;2023-03-24T09:34:01;4.57;;;2.80;;
21814;SDS011;11069;48.988;8.450;2023-03-24T09:36:27;3.63;;;2.75;;
21814;SDS011;11069;48.988;8.450;2023-03-24T09:38:53;3.10;;;2.50;;
21814;SDS011;11069;48.988;8.450;2023-03-24T09:41:24;3.42;;;2.50;;
21814;SDS011;11069;48.988;8.450;2023-03-24T09:46:56;2.20;;;2.00;;
21814;SDS011;11069;48.988;8.450;2023-03-24T09:49:27;3.25;;;2.38;;
21814;SDS011;11069;48.988;8.450;2023-03-24T09:57:00;3.70;;;1.80;;
21814;SDS011;11069;48.988;8.450;2023-03-24T10:01:52;2.33;;;1.80;;
21814;SDS011;11069;48.988;8.450;2023-03-24T10:04:19;2.13;;;1.70;;
21814;SDS011;11069;48.988;8.450;2023-03-24T10:06:47;2.20;;;1.98;;
21814;SDS011;11069;48.988;8.450;2023-03-24T10:20:00;2.25;;;1.70;;
21814;SDS011;11069;48.988;8.450;2023-03-24T10:22:31;2.63;;;2.10;;
21814;SDS011;11069;48.988;8.450;2023-03-24T10:25:12;3.42;;;1.88;;
21814;SDS011;11069;48.988;8.450;2023-03-24T10:27:59;2.42;;;1.90;;
21814;SDS011;11069;48.988;8.450;2023-03-24T10:30:33;1.80;;;1.70;;
21814;SDS011;11069;48.988;8.450;2023-03-24T10:33:03;2.92;;;1.85;;
21814;SDS011;11069;48.988;8.450;2023-03-24T10:35:31;2.97;;;1.83;;
21814;SDS011;11069;48.988;8.450;2023-03-24T10:38:19;1.70;;;1.60;;
21814;SDS011;11069;48.988;8.450;2023-03-24T10:40:46;1.90;;;1.70;;
21814;SDS011;11069;48.988;8.450;2023-03-24T10:43:13;2.85;;;1.90;;
21814;SDS011;11069;48.988;8.450;2023-03-24T10:45:43;2.07;;;1.73;;
21814;SDS011;11069;48.988;8.450;2023-03-24T10:48:12;2.25;;;1.67;;
21814;SDS011;11069;48.988;8.450;2023-03-24T10:50:43;1.83;;;1.70;;
21814;SDS011;11069;48.988;8.450;2023-03-24T10:53:19;2.45;;;1.80;;
21814;SDS011;11069;48.988;8.450;2023-03-24T10:55:45;2.55;;;1.70;;
21814;SDS011;11069;48.988;8.450;2023-03-24T11:01:02;2.05;;;1.75;;
21814;SDS011;11069;48.988;8.450;2023-03-24T11:03:46;2.75;;;2.00;;
21814;SDS011;11069;48.988;8.450;2023-03-24T11:06:14;2.55;;;1.73;;
21814;SDS011;11069;48.988;8.450;2023-03-24T11:08:42;2.05;;;1.73;;
21814;SDS011;11069;48.988;8.450;2023-03-24T11:13:56;2.95;;;1.95;;
21814;SDS011;11069;48.988;8.450;2023-03-24T11:16:35;2.45;;;1.77;;
21814;SDS011;11069;48.988;8.450;2023-03-24T11:21:31;2.42;;;1.90;;
21814;SDS011;11069;48.988;8.450;2023-03-24T11:24:00;4.05;;;2.17;;
21814;SDS011;11069;48.988;8.450;2023-03-24T11:28:57;1.95;;;1.58;;
21814;SDS011;11069;48.988;8.450;2023-03-24T11:31:30;3.17;;;1.77;;
21814;SDS011;11069;48.988;8.450;2023-03-24T11:37:01;2.08;;;1.70;;
21814;SDS011;11069;48.988;8.450;2023-03-24T11:39:43;2.03;;;1.83;;
21814;SDS011;11069;48.988;8.450;2023-03-24T11:44:42;2.85;;;2.03;;
21814;SDS011;11069;48.988;8.450;2023-03-24T11:49:45;3.25;;;1.90;;
21814;SDS011;11069;48.988;8.450;2023-03-24T11:52:21;5.45;;;2.45;;
21814;SDS011;11069;48.988;8.450;2023-03-24T11:54:52;2.50;;;2.03;;
21814;SDS011;11069;48.988;8.450;2023-03-24T11:57:21;3.97;;;2.22;;
21814;SDS011;11069;48.988;8.450;2023-03-24T12:00:19;2.15;;;1.95;;
21814;SDS011;11069;48.988;8.450;2023-03-24T12:02:54;2.63;;;1.33;;
21814;SDS011;11069;48.988;8.450;2023-03-24T12:05:35;2.67;;;1.45;;
21814;SDS011;11069;48.988;8.450;2023-03-24T12:13:44;7.57;;;1.95;;
21814;SDS011;11069;48.988;8.450;2023-03-24T12:26:57;6.57;;;2.40;;
21814;SDS011;11069;48.988;8.450;2023-03-24T12:29:30;9.65;;;2.72;;
21814;SDS011;11069;48.988;8.450;2023-03-24T12:38:06;9.20;;;2.40;;
21814;SDS011;11069;48.988;8.450;2023-03-24T12:43:35;5.88;;;2.45;;
21814;SDS011;11069;48.988;8.450;2023-03-24T12:48:58;8.98;;;2.45;;
21814;SDS011;11069;48.988;8.450;2023-03-24T12:55:00;8.27;;;2.85;;
21814;SDS011;11069;48.988;8.450;2023-03-24T12:57:36;9.95;;;2.67;;
21814;SDS011;11069;48.988;8.450;2023-03-24T13:00:10;8.63;;;3.00;;
21814;SDS011;11069;48.988;8.450;2023-03-24T13:02:42;9.32;;;2.90;;
21814;SDS011;11069;48.988;8.450;2023-03-24T13:05:14;11.05;;;2.97;;
21814;SDS011;11069;48.988;8.450;2023-03-24T13:07:43;7.60;;;2.33;;
21814;SDS011;11069;48.988;8.450;2023-03-24T13:10:12;9.15;;;2.67;;
21814;SDS011;11069;48.988;8.450;2023-03-24T13:20:04;9.25;;;2.75;;
21814;SDS011;11069;48.988;8.450;2023-03-24T13:22:36;5.22;;;2.83;;
21814;SDS011;11069;48.988;8.450;2023-03-24T13:25:03;8.00;;;2.83;;
21814;SDS011;11069;48.988;8.450;2023-03-24T13:27:38;9.55;;;3.08;;
21814;SDS011;11069;48.988;8.450;2023-03-24T13:32:47;8.35;;;2.97;;
21814;SDS011;11069;48.988;8.450;2023-03-24T13:35:22;8.80;;;2.55;;
21814;SDS011;11069;48.988;8.450;2023-03-24T13:38:25;7.65;;;2.42;;
21814;SDS011;11069;48.988;8.450;2023-03-24T13:40:59;9.25;;;2.83;;
21814;SDS011;11069;48.988;8.450;2023-03-24T13:43:28;8.43;;;2.30;;
21814;SDS011;11069;48.988;8.450;2023-03-24T13:46:06;9.00;;;2.40;;
21814;SDS011;11069;48.988;8.450;2023-03-24T13:48:37;5.20;;;2.45;;
21814;SDS011;11069;48.988;8.450;2023-03-24T13:51:31;9.88;;;3.30;;
21814;SDS011;11069;48.988;8.450;2023-03-24T13:56:34;6.95;;;2.45;;
21814;SDS011;11069;48.988;8.450;2023-03-24T13:59:22;7.93;;;2.72;;
21814;SDS011;11069;48.988;8.450;2023-03-24T14:04:43;7.97;;;2.85;;
21814;SDS011;11069;48.988;8.450;2023-03-24T14:07:28;7.25;;;2.72;;
21814;SDS011;11069;48.988;8.450;2023-03-24T14:09:56;6.32;;;2.60;;
21814;SDS011;11069;48.988;8.450;2023-03-24T14:12:50;7.93;;;2.85;;
21814;SDS011;11069;48.988;8.450;2023-03-24T14:17:54;3.35;;;2.10;;
21814;SDS011;11069;48.988;8.450;2023-03-24T14:20:38;8.10;;;2.70;;
21814;SDS011;11069;48.988;8.450;2023-03-24T14:25:52;5.05;;;2.20;;
21814;SDS011;11069;48.988;8.450;2023-03-24T14:28:21;4.80;;;2.25;;
21814;SDS011;11069;48.988;8.450;2023-03-24T14:33:37;7.15;;;2.30;;
21814;SDS011;11069;48.988;8.450;2023-03-24T14:36:03;3.55;;;2.15;;
21814;SDS011;11069;48.988;8.450;2023-03-24T14:38:34;3.40;;;2.20;;
21814;SDS011;11069;48.988;8.450;2023-03-24T14:51:53;4.70;;;1.90;;
21814;SDS011;11069;48.988;8.450;2023-03-24T14:57:22;4.90;;;1.50;;
21814;SDS011;11069;48.988;8.450;2023-03-24T15:00:06;2.00;;;1.40;;
21814;SDS011;11069;48.988;8.450;2023-03-24T15:02:46;3.15;;;1.80;;
21814;SDS011;11069;48.988;8.450;2023-03-24T15:10:52;2.20;;;1.53;;
21814;SDS011;11069;48.988;8.450;2023-03-24T15:13:25;3.05;;;1.45;;
21814;SDS011;11069;48.988;8.450;2023-03-24T15:16:00;3.72;;;1.33;;
21814;SDS011;11069;48.988;8.450;2023-03-24T15:18:30;1.83;;;1.55;;
21814;SDS011;11069;48.988;8.450;2023-03-24T15:20:57;2.20;;;1.67;;
21814;SDS011;11069;48.988;8.450;2023-03-24T15:23:24;1.92;;;1.50;;
21814;SDS011;11069;48.988;8.450;2023-03-24T15:25:52;2.42;;;1.70;;
21814;SDS011;11069;48.988;8.450;2023-03-24T15:28:24;1.83;;;1.40;;
21814;SDS011;11069;48.988;8.450;2023-03-24T15:30:52;2.65;;;1.50;;
21814;SDS011;11069;48.988;8.450;2023-03-24T15:33:20;1.55;;;1.30;;
21814;SDS011;11069;48.988;8.450;2023-03-24T15:35:46;2.28;;;1.30;;
21814;SDS011;11069;48.988;8.450;2023-03-24T15:38:18;2.65;;;1.63;;
21814;SDS011;11069;48.988;8.450;2023-03-24T15:40:56;1.48;;;1.38;;
21814;SDS011;11069;48.988;8.450;2023-03-24T15:43:24;1.52;;;1.42;;
21814;SDS011;11069;48.988;8.450;2023-03-24T15:45:51;1.90;;;1.40;;
21814;SDS011;11069;48.988;8.450;2023-03-24T15:48:19;1.40;;;1.30;;
21814;SDS011;11069;48.988;8.450;2023-03-24T15:50:55;3.47;;;1.55;;
21814;SDS011;11069;48.988;8.450;2023-03-24T15:58:45;2.67;;;1.50;;
21814;SDS011;11069;48.988;8.450;2023-03-24T16:01:11;2.08;;;1.40;;
21814;SDS011;11069;48.988;8.450;2023-03-24T16:03:41;2.67;;;1.65;;
21814;SDS011;11069;48.988;8.450;2023-03-24T16:08:40;2.58;;;1.42;;
21814;SDS011;11069;48.988;8.450;2023-03-24T16:11:11;2.95;;;1.60;;
21814;SDS011;11069;48.988;8.450;2023-03-24T16:18:43;2.08;;;1.50;;
21814;SDS011;11069;48.988;8.450;2023-03-24T16:21:14;1.98;;;1.40;;
21814;SDS011;11069;48.988;8.450;2023-03-24T16:23:42;2.15;;;1.50;;
21814;SDS011;11069;48.988;8.450;2023-03-24T16:26:19;2.17;;;1.40;;
21814;SDS011;11069;48.988;8.450;2023-03-24T16:28:50;2.72;;;1.35;;
21814;SDS011;11069;48.988;8.450;2023-03-24T16:33:50;1.58;;;1.30;;
21814;SDS011;11069;48.988;8.450;2023-03-24T16:36:16;1.85;;;1.40;;
21814;SDS011;11069;48.988;8.450;2023-03-24T16:38:45;1.30;;;1.20;;
21814;SDS011;11069;48.988;8.450;2023-03-24T16:41:13;2.10;;;1.33;;
21814;SDS011;11069;48.988;8.450;2023-03-24T16:43:40;2.65;;;1.40;;
21814;SDS011;11069;48.988;8.450;2023-03-24T16:48:50;2.63;;;1.50;;
21814;SDS011;11069;48.988;8.450;2023-03-24T16:51:15;1.50;;;1.20;;
21814;SDS011;11069;48.988;8.450;2023-03-24T16:53:42;1.80;;;1.48;;
21814;SDS011;11069;48.988;8.450;2023-03-24T16:56:09;3.58;;;1.70;;
21814;SDS011;11069;48.988;8.450;2023-03-24T16:58:37;1.85;;;1.20;;
21814;SDS011;11069;48.988;8.450;2023-03-24T17:01:03;2.58;;;1.63;;
21814;SDS011;11069;48.988;8.450;2023-03-24T17:04:00;1.90;;;1.60;;
21814;SDS011;11069;48.988;8.450;2023-03-24T17:06:34;1.70;;;1.33;;
21814;SDS011;11069;48.988;8.450;2023-03-24T17:09:01;1.90;;;1.42;;
21814;SDS011;11069;48.988;8.450;2023-03-24T17:11:43;1.70;;;1.55;;
21814;SDS011;11069;48.988;8.450;2023-03-24T17:14:12;2.25;;;1.70;;
21814;SDS011;11069;48.988;8.450;2023-03-24T17:16:38;2.55;;;1.70;;
21814;SDS011;11069;48.988;8.450;2023-03-24T17:19:07;4.43;;;1.77;;
21814;SDS011;11069;48.988;8.450;2023-03-24T17:21:37;2.28;;;1.55;;
21814;SDS011;11069;48.988;8.450;2023-03-24T17:24:08;2.05;;;1.33;;
21814;SDS011;11069;48.988;8.450;2023-03-24T17:26:38;2.45;;;1.50;;
21814;SDS011;11069;48.988;8.450;2023-03-24T17:29:05;1.60;;;1.50;;
21814;SDS011;11069;48.988;8.450;2023-03-24T17:31:31;2.50;;;1.42;;
21814;SDS011;11069;48.988;8.450;2023-03-24T17:33:57;1.85;;;1.55;;
21814;SDS011;11069;48.988;8.450;2023-03-24T17:36:23;1.90;;;1.70;;
21814;SDS011;11069;48.988;8.450;2023-03-24T17:38:48;1.45;;;1.33;;
21814;SDS011;11069;48.988;8.450;2023-03-24T17:41:14;3.28;;;1.77;;
21814;SDS011;11069;48.988;8.450;2023-03-24T17:43:40;3.25;;;1.70;;
21814;SDS011;11069;48.988;8.450;2023-03-24T17:46:05;2.22;;;1.52;;
21814;SDS011;11069;48.988;8.450;2023-03-24T17:48:31;2.97;;;1.60;;
21814;SDS011;11069;48.988;8.450;2023-03-24T17:50:57;2.97;;;1.65;;
21814;SDS011;11069;48.988;8.450;2023-03-24T17:53:23;1.65;;;1.50;;
21814;SDS011;11069;48.988;8.450;2023-03-24T17:55:53;2.55;;;1.80;;
21814;SDS011;11069;48.988;8.450;2023-03-24T17:58:21;2.75;;;1.70;;
21814;SDS011;11069;48.988;8.450;2023-03-24T18:00:48;1.85;;;1.70;;
21814;SDS011;11069;48.988;8.450;2023-03-24T18:03:14;1.52;;;1.42;;
21814;SDS011;11069;48.988;8.450;2023-03-24T18:05:40;2.40;;;1.98;;
21814;SDS011;11069;48.988;8.450;2023-03-24T18:08:06;3.40;;;1.98;;
21814;SDS011;11069;48.988;8.450;2023-03-24T18:10:32;2.22;;;1.75;;